DONNELLS (DON)

Elevation: 4835' · STANISLAUS R basin · Operator: US Bureau of Reclamation

Provisional data, subject to change.
Query executed Saturday at 2:25:29   clock

Select a sensor type for a plot of data.
Note: Reservoir Flows are daily averages.

Earlier

Date STORAGE    RES CHG    OUTFLOW   
 AF   AF   CFS  
10/02/2014 46244 -539 330
10/03/2014 45703 -541 329
10/04/2014 45299 -404 249
10/05/2014 44964 -335 211
10/06/2014 44421 -543 328
10/07/2014 44031 -390 238
10/08/2014 43385 -646 404
10/09/2014 42955 -430 257
10/10/2014 42565 -390 245
10/11/2014 42280 -285 182
10/12/2014 42032 -248 210
10/13/2014 41551 -481 290
10/14/2014 41127 -424 252
10/15/2014 40726 -401 284
10/16/2014 40260 -466 268
10/17/2014 40206 -54 46
10/18/2014 39961 -245 223
10/19/2014 39623 -338 219
10/20/2014 39505 -118 70
10/21/2014 39559 54 26
10/22/2014 39609 50 25
10/23/2014 39655 46 26
10/24/2014 39699 44 26
10/25/2014 39767 68 25
10/26/2014 39832 65 25
10/27/2014 39889 57 25
10/28/2014 39947 58 25
10/29/2014 40001 54 25
10/30/2014 40048 47 26
10/31/2014 -- -- --
11/01/2014 -- -- --

Later | Latest

Warning! This data is preliminary and subject to revision.

Show DON Map | Plot DON Data | 1 Month DON Data | Real-Time DON Data | DON Info